Terminal Aerodrome Forecast
Issued by NWS

Home | Current Version | Previous Version | Text Only | Print | Product List | Glossary Off
Versions: 1 2 3 4 5 6 7 8 9 10 11 12 13 14 15 16 17 18 19 20 21 22 23

000
FTUS43 KFGF 191700
TAFBJI
TAF
KBJI 191735Z 1918/2018 20010KT P6SM OVC013
      TEMPO 1918/1919 -SHRA
     FM192100 20012KT P6SM SCT100
     FM200200 26008KT P6SM BKN100
     FM200500 28010KT P6SM BKN100
     FM201200 VRB06KT P6SM BKN100=

USA.gov is the U.S. government's official web portal to all federal, state and local government web resources and services.